createdAt,value
2019-05-25T00:01:15.949Z,99.90
2019-05-25T00:03:46.223Z,99.90
2019-05-25T00:06:16.582Z,99.90
2019-05-25T00:08:47.083Z,99.90
2019-05-25T00:11:17.621Z,99.90
2019-05-25T00:13:47.997Z,99.90
2019-05-25T00:16:18.381Z,99.90
2019-05-25T00:18:48.665Z,99.90
2019-05-25T00:21:19.021Z,99.90
2019-05-25T00:23:49.389Z,99.90
2019-05-25T00:26:19.801Z,99.90
2019-05-25T00:28:50.315Z,99.90
2019-05-25T00:31:20.738Z,99.90
2019-05-25T00:33:52.369Z,99.90
2019-05-25T00:36:22.800Z,99.90
2019-05-25T00:38:53.199Z,99.90
2019-05-25T00:41:23.561Z,99.90
2019-05-25T00:43:53.903Z,99.90
2019-05-25T00:46:24.393Z,99.90
2019-05-25T00:48:54.745Z,99.90
2019-05-25T00:51:25.072Z,99.90
2019-05-25T00:53:55.474Z,99.90
2019-05-25T00:56:26.154Z,99.90
2019-05-25T00:58:56.499Z,99.90
2019-05-25T01:01:26.795Z,99.90
2019-05-25T01:03:57.202Z,99.90
2019-05-25T01:06:27.529Z,99.90
2019-05-25T01:08:57.937Z,99.90
2019-05-25T01:11:28.325Z,99.90
2019-05-25T01:13:59.083Z,99.90
2019-05-25T01:16:29.486Z,99.90
2019-05-25T01:18:59.833Z,99.90
2019-05-25T01:21:32.079Z,99.90
2019-05-25T01:24:02.561Z,99.90
2019-05-25T01:26:33.083Z,99.90
2019-05-25T01:29:03.462Z,99.90
2019-05-25T01:31:33.831Z,99.90
2019-05-25T01:34:04.264Z,99.90
2019-05-25T01:36:34.661Z,99.90
2019-05-25T01:39:07.067Z,99.90
2019-05-25T01:41:37.636Z,99.90
2019-05-25T01:44:07.971Z,99.90
2019-05-25T01:46:38.360Z,99.90
2019-05-25T01:49:09.992Z,99.90
2019-05-25T01:51:40.389Z,99.90
2019-05-25T01:54:10.719Z,99.90
2019-05-25T01:56:41.094Z,99.90
2019-05-25T01:59:11.459Z,99.90
2019-05-25T02:01:41.883Z,99.90
2019-05-25T02:04:12.313Z,99.90
2019-05-25T02:06:42.583Z,99.90
2019-05-25T02:09:12.931Z,99.90
2019-05-25T02:11:43.320Z,99.90
2019-05-25T02:14:14.779Z,99.90
2019-05-25T02:16:45.154Z,99.90
2019-05-25T02:19:16.637Z,99.90
2019-05-25T02:21:47.032Z,99.90
2019-05-25T02:24:17.271Z,99.90
2019-05-25T02:26:47.678Z,99.90
2019-05-25T02:29:18.021Z,99.90
2019-05-25T02:31:48.352Z,99.90
2019-05-25T02:34:18.775Z,99.90
2019-05-25T02:36:49.475Z,99.90
2019-05-25T02:39:19.799Z,99.90
2019-05-25T02:41:50.239Z,99.90
2019-05-25T02:44:20.680Z,99.90
2019-05-25T02:46:51.071Z,99.90
2019-05-25T02:49:22.064Z,99.90
2019-05-25T02:51:52.609Z,99.90
2019-05-25T02:54:22.939Z,99.90
2019-05-25T02:56:53.310Z,99.90
2019-05-25T02:59:23.668Z,99.90
2019-05-25T03:01:54.364Z,99.90
2019-05-25T03:04:24.905Z,99.90
2019-05-25T03:06:56.077Z,99.90
2019-05-25T03:09:28.505Z,99.90
2019-05-25T03:12:00.730Z,99.90
2019-05-25T03:14:31.103Z,99.90
2019-05-25T03:17:01.570Z,99.90
2019-05-25T03:19:31.937Z,99.90
2019-05-25T03:22:02.295Z,99.90
2019-05-25T03:24:32.618Z,99.90
2019-05-25T03:27:03.451Z,99.90
2019-05-25T03:29:33.795Z,99.90
2019-05-25T03:32:04.090Z,99.90
2019-05-25T03:34:34.400Z,99.90
2019-05-25T03:37:04.687Z,99.90
2019-05-25T03:39:35.042Z,99.90
2019-05-25T03:42:09.160Z,99.90
2019-05-25T03:44:39.513Z,99.90
2019-05-25T03:47:09.927Z,99.90
2019-05-25T03:49:40.367Z,99.90
2019-05-25T03:52:10.762Z,99.90
2019-05-25T03:54:41.141Z,99.90
2019-05-25T03:57:11.509Z,99.90
2019-05-25T03:59:41.891Z,99.90
2019-05-25T04:02:12.320Z,99.90
2019-05-25T04:04:42.889Z,99.90
2019-05-25T04:07:13.282Z,99.90
2019-05-25T04:09:43.599Z,99.90
2019-05-25T04:12:13.987Z,99.90
2019-05-25T04:14:44.296Z,99.90
2019-05-25T04:17:14.676Z,99.90
2019-05-25T04:19:45.120Z,99.90
2019-05-25T04:22:15.439Z,99.90
2019-05-25T04:24:45.835Z,99.90
2019-05-25T04:27:16.319Z,99.90
2019-05-25T04:29:46.709Z,99.90
2019-05-25T04:32:17.098Z,99.90
2019-05-25T04:34:47.558Z,99.90
2019-05-25T04:37:17.934Z,99.90
2019-05-25T04:39:48.415Z,99.90
2019-05-25T04:42:18.719Z,99.90
2019-05-25T04:44:49.121Z,99.90
2019-05-25T04:47:27.048Z,99.90
2019-05-25T04:49:51.490Z,98.90
2019-05-25T04:52:21.877Z,98.20
2019-05-25T04:54:52.275Z,97.10
2019-05-25T04:57:22.603Z,95.90
2019-05-25T04:59:52.988Z,95.40
2019-05-25T05:02:23.413Z,94.80
2019-05-25T05:04:53.721Z,93.90
2019-05-25T05:07:24.430Z,93.40
2019-05-25T05:10:02.565Z,93.20
2019-05-25T05:12:26.735Z,92.20
2019-05-25T05:14:58.821Z,91.50
2019-05-25T05:17:29.200Z,90.90
2019-05-25T05:19:59.576Z,90.70
2019-05-25T05:22:29.983Z,90.30
2019-05-25T05:25:01.146Z,89.60
2019-05-25T05:27:31.434Z,88.10
2019-05-25T05:30:01.697Z,87.60
2019-05-25T05:32:32.202Z,86.30
2019-05-25T05:35:02.558Z,85.10
2019-05-25T05:37:33.649Z,84.30
2019-05-25T05:40:05.033Z,82.80
2019-05-25T05:42:38.911Z,80.80
2019-05-25T05:45:09.846Z,79.40
2019-05-25T05:47:42.777Z,78.30
2019-05-25T05:50:13.906Z,78.50
2019-05-25T05:52:44.424Z,77.70
2019-05-25T05:55:17.404Z,77.10
2019-05-25T05:57:48.082Z,77.10
2019-05-25T06:00:19.624Z,76.00
2019-05-25T06:02:49.953Z,74.70
2019-05-25T06:05:20.360Z,74.00
2019-05-25T06:07:50.666Z,73.10
2019-05-25T06:10:21.464Z,74.30
2019-05-25T06:12:52.365Z,73.70
2019-05-25T06:15:22.901Z,73.20
2019-05-25T06:17:53.291Z,72.10
2019-05-25T06:20:24.357Z,70.80
2019-05-25T06:22:54.686Z,70.20
2019-05-25T06:25:25.117Z,70.60
2019-05-25T06:27:55.452Z,70.90
2019-05-25T06:30:26.104Z,69.90
2019-05-25T06:32:56.486Z,68.80
2019-05-25T06:35:26.962Z,68.80
2019-05-25T06:37:57.342Z,68.90
2019-05-25T06:40:27.694Z,69.30
2019-05-25T06:42:58.083Z,69.20
2019-05-25T06:45:28.488Z,69.50
2019-05-25T06:47:59.087Z,69.00
2019-05-25T06:50:29.584Z,67.80
2019-05-25T06:53:00.015Z,67.40
2019-05-25T06:55:30.426Z,67.10
2019-05-25T06:58:01.913Z,67.60
2019-05-25T07:00:32.321Z,65.80
2019-05-25T07:03:02.669Z,65.10
2019-05-25T07:05:33.014Z,64.40
2019-05-25T07:08:03.401Z,65.00
2019-05-25T07:10:34.156Z,65.40
2019-05-25T07:13:05.305Z,64.50
2019-05-25T07:15:35.656Z,63.60
2019-05-25T07:18:06.024Z,62.80
2019-05-25T07:20:36.379Z,62.10
2019-05-25T07:23:06.745Z,61.50
2019-05-25T07:25:37.139Z,61.20
2019-05-25T07:28:07.537Z,60.90
2019-05-25T07:30:37.880Z,61.70
2019-05-25T07:33:08.298Z,60.80
2019-05-25T07:35:38.712Z,60.40
2019-05-25T07:38:09.063Z,60.10
2019-05-25T07:40:39.422Z,60.40
2019-05-25T07:43:11.096Z,60.10
2019-05-25T07:45:41.457Z,59.70
2019-05-25T07:48:11.842Z,59.10
2019-05-25T07:50:42.084Z,58.60
2019-05-25T07:53:14.193Z,57.60
2019-05-25T07:55:44.669Z,57.60
2019-05-25T07:58:17.965Z,56.90
2019-05-25T08:00:46.921Z,56.80
2019-05-25T08:03:17.288Z,56.80
2019-05-25T08:05:48.947Z,57.20
2019-05-25T08:08:19.291Z,57.40
2019-05-25T08:10:49.636Z,56.90
2019-05-25T08:13:19.992Z,56.40
2019-05-25T08:15:51.729Z,57.00
2019-05-25T08:18:22.111Z,56.70
2019-05-25T08:20:52.488Z,56.40
2019-05-25T08:23:23.310Z,55.40
2019-05-25T08:25:53.649Z,55.60
2019-05-25T08:28:32.937Z,55.40
2019-05-25T08:30:56.540Z,55.10
2019-05-25T08:33:26.897Z,55.60
2019-05-25T08:35:57.371Z,55.80
2019-05-25T08:38:27.749Z,55.40
2019-05-25T08:40:58.141Z,55.30
2019-05-25T08:43:28.505Z,54.30
2019-05-25T08:45:58.891Z,53.70
2019-05-25T08:48:29.345Z,53.30
2019-05-25T08:50:59.879Z,53.50
2019-05-25T08:53:40.565Z,53.90
2019-05-25T08:56:02.469Z,54.00
2019-05-25T08:58:47.556Z,54.30
2019-05-25T09:01:04.930Z,54.40
2019-05-25T09:03:35.256Z,53.90
2019-05-25T09:06:05.696Z,53.40
2019-05-25T09:08:37.422Z,53.10
2019-05-25T09:11:07.804Z,53.00
2019-05-25T09:13:38.193Z,53.40
2019-05-25T09:16:08.544Z,53.20
2019-05-25T09:18:38.903Z,52.80
2019-05-25T09:21:09.341Z,53.70
2019-05-25T09:23:39.623Z,52.90
2019-05-25T09:26:13.235Z,52.30
2019-05-25T09:28:41.890Z,52.00
2019-05-25T09:31:12.217Z,51.90
2019-05-25T09:33:42.584Z,52.00
2019-05-25T09:36:14.056Z,52.40
2019-05-25T09:38:44.378Z,52.20
2019-05-25T09:41:14.779Z,52.70
2019-05-25T09:43:45.311Z,52.90
2019-05-25T09:46:16.839Z,53.50
2019-05-25T09:48:47.429Z,53.90
2019-05-25T09:51:17.819Z,53.70
2019-05-25T09:53:48.208Z,53.20
2019-05-25T09:56:18.508Z,53.00
2019-05-25T09:58:48.932Z,52.10
2019-05-25T10:01:19.280Z,51.80
2019-05-25T10:03:49.571Z,51.80
2019-05-25T10:06:20.387Z,52.20
2019-05-25T10:08:50.755Z,51.70
2019-05-25T10:11:21.176Z,51.10
2019-05-25T10:13:51.552Z,50.60
2019-05-25T10:16:21.952Z,50.50
2019-05-25T10:18:52.294Z,50.60
2019-05-25T10:21:22.670Z,49.60
2019-05-25T10:23:53.186Z,50.30
2019-05-25T10:26:23.550Z,49.00
2019-05-25T10:28:53.910Z,49.30
2019-05-25T10:31:24.296Z,49.30
2019-05-25T10:33:54.722Z,49.20
2019-05-25T10:36:25.442Z,49.70
2019-05-25T10:38:56.039Z,50.10
2019-05-25T10:41:26.634Z,50.60
2019-05-25T10:43:58.125Z,50.80
2019-05-25T10:46:28.811Z,51.00
2019-05-25T10:48:59.274Z,51.20
2019-05-25T10:51:29.571Z,51.40
2019-05-25T10:54:00.016Z,50.00
2019-05-25T10:56:30.404Z,50.60
2019-05-25T10:59:00.839Z,51.20
2019-05-25T11:01:31.270Z,50.50
2019-05-25T11:04:01.548Z,50.40
2019-05-25T11:06:34.865Z,50.50
2019-05-25T11:09:05.407Z,50.10
2019-05-25T11:11:35.783Z,50.00
2019-05-25T11:14:06.573Z,50.00
2019-05-25T11:16:36.982Z,50.00
2019-05-25T11:19:07.338Z,50.20
2019-05-25T11:21:37.716Z,50.40
2019-05-25T11:24:08.082Z,50.50
2019-05-25T11:26:38.846Z,49.50
2019-05-25T11:29:10.283Z,49.70
2019-05-25T11:31:40.623Z,49.20
2019-05-25T11:34:11.026Z,49.70
2019-05-25T11:36:41.530Z,49.10
2019-05-25T11:39:11.911Z,48.10
2019-05-25T11:41:42.307Z,47.20
2019-05-25T11:44:14.357Z,47.70
2019-05-25T11:46:44.940Z,48.30
2019-05-25T11:49:22.567Z,48.10
2019-05-25T11:51:47.475Z,48.30
2019-05-25T11:54:17.897Z,48.10
2019-05-25T11:56:48.317Z,48.30
2019-05-25T11:59:18.630Z,48.10
2019-05-25T12:01:49.084Z,48.40
2019-05-25T12:04:19.495Z,48.90
2019-05-25T12:06:49.918Z,47.80
2019-05-25T12:09:20.286Z,47.80
2019-05-25T12:11:51.291Z,48.30
2019-05-25T12:14:21.610Z,47.40
2019-05-25T12:16:52.032Z,47.50
2019-05-25T12:19:22.376Z,48.00
2019-05-25T12:21:52.759Z,48.90
2019-05-25T12:24:23.246Z,49.10
2019-05-25T12:26:53.905Z,48.70
2019-05-25T12:29:24.320Z,48.80
2019-05-25T12:32:03.631Z,49.00
2019-05-25T12:34:28.012Z,50.20
2019-05-25T12:36:58.346Z,51.40
2019-05-25T12:39:28.604Z,52.10
2019-05-25T12:41:58.964Z,51.70
2019-05-25T12:44:29.385Z,52.00
2019-05-25T12:46:59.796Z,52.10
2019-05-25T12:49:49.079Z,52.10
2019-05-25T12:52:02.088Z,52.40
2019-05-25T12:54:32.824Z,53.60
2019-05-25T12:57:03.203Z,55.10
2019-05-25T12:59:33.528Z,55.40
2019-05-25T13:02:04.078Z,56.20
2019-05-25T13:04:34.465Z,56.70
2019-05-25T13:07:04.867Z,57.30
2019-05-25T13:09:35.329Z,58.30
2019-05-25T13:12:06.076Z,58.40
2019-05-25T13:14:36.423Z,58.30
2019-05-25T13:17:06.805Z,57.60
2019-05-25T13:19:38.580Z,58.80
2019-05-25T13:22:08.920Z,58.30
2019-05-25T13:24:39.782Z,58.90
2019-05-25T13:27:10.151Z,59.30
2019-05-25T13:29:40.530Z,59.50
2019-05-25T13:32:10.962Z,59.90
2019-05-25T13:34:41.367Z,59.60
2019-05-25T13:37:12.171Z,58.80
2019-05-25T13:39:43.627Z,59.20
2019-05-25T13:42:14.026Z,59.60
2019-05-25T13:44:44.426Z,59.70
2019-05-25T13:47:14.820Z,59.80
2019-05-25T13:49:45.278Z,59.70
2019-05-25T13:52:17.139Z,59.90
2019-05-25T13:54:47.598Z,60.50
2019-05-25T13:57:18.378Z,60.80
2019-05-25T13:59:48.803Z,60.80
2019-05-25T14:02:19.195Z,60.50
2019-05-25T14:04:49.599Z,60.50
2019-05-25T14:07:19.982Z,60.40
2019-05-25T14:09:50.382Z,61.20
2019-05-25T14:12:20.747Z,60.80
2019-05-25T14:14:51.249Z,60.40
2019-05-25T14:17:21.566Z,60.30
2019-05-25T14:19:51.996Z,60.80
2019-05-25T14:22:22.467Z,61.00
2019-05-25T14:24:52.925Z,61.60
2019-05-25T14:27:23.904Z,62.20
2019-05-25T14:29:54.276Z,62.60
2019-05-25T14:32:24.730Z,62.40
2019-05-25T14:34:55.124Z,62.30
2019-05-25T14:37:25.523Z,61.90
2019-05-25T14:39:57.742Z,61.60
2019-05-25T14:42:28.080Z,61.80
2019-05-25T14:44:59.363Z,62.20
2019-05-25T14:47:29.759Z,61.90
2019-05-25T14:50:00.391Z,62.80
2019-05-25T14:52:31.153Z,62.40
2019-05-25T14:55:01.569Z,61.70
2019-05-25T14:57:31.883Z,61.70
2019-05-25T15:00:03.809Z,62.30
2019-05-25T15:02:40.324Z,62.50
2019-05-25T15:05:11.327Z,62.10
2019-05-25T15:07:41.736Z,62.00
2019-05-25T15:10:12.733Z,61.90
2019-05-25T15:12:43.123Z,61.80
2019-05-25T15:15:13.775Z,61.70
2019-05-25T15:17:44.433Z,61.80
2019-05-25T15:20:15.712Z,61.70
2019-05-25T15:22:47.025Z,61.80
2019-05-25T15:25:18.172Z,60.80
2019-05-25T15:27:48.633Z,59.90
2019-05-25T15:30:19.377Z,59.70
2019-05-25T15:32:49.779Z,60.50
2019-05-25T15:35:20.926Z,60.60
2019-05-25T15:37:51.497Z,60.10
2019-05-25T15:40:22.151Z,60.30
2019-05-25T15:42:52.457Z,60.40
2019-05-25T15:45:22.925Z,60.00
2019-05-25T15:47:53.395Z,60.00
2019-05-25T15:50:24.491Z,60.10
2019-05-25T15:52:56.745Z,59.70
2019-05-25T15:55:26.867Z,59.50
2019-05-25T15:57:57.337Z,59.90
2019-05-25T16:00:52.122Z,60.20
2019-05-25T16:03:22.974Z,60.60
2019-05-25T16:05:53.655Z,61.00
2019-05-25T16:08:23.985Z,61.50
2019-05-25T16:10:54.335Z,62.40
2019-05-25T16:13:24.679Z,63.90
2019-05-25T16:15:55.079Z,64.80
2019-05-25T16:18:25.467Z,65.50
2019-05-25T16:20:55.788Z,65.90
2019-05-25T16:23:26.110Z,66.50
2019-05-25T16:25:56.497Z,67.00
2019-05-25T16:28:26.891Z,67.20
2019-05-25T16:30:57.235Z,67.50
2019-05-25T16:33:27.749Z,67.80
2019-05-25T16:35:58.338Z,68.20
2019-05-25T16:38:28.735Z,68.70
2019-05-25T16:40:59.125Z,69.10
2019-05-25T16:43:29.521Z,69.40
2019-05-25T16:45:59.853Z,69.80
2019-05-25T16:48:30.255Z,70.00
2019-05-25T16:51:00.995Z,70.40
2019-05-25T16:53:31.306Z,70.70
2019-05-25T16:56:03.110Z,70.70
2019-05-25T16:58:33.507Z,70.90
2019-05-25T17:01:03.837Z,71.30
2019-05-25T17:03:34.505Z,71.50
2019-05-25T17:06:04.968Z,71.80
2019-05-25T17:08:35.403Z,72.00
2019-05-25T17:11:05.791Z,72.40
2019-05-25T17:13:36.313Z,72.60
2019-05-25T17:16:06.725Z,73.10
2019-05-25T17:18:37.075Z,73.60
2019-05-25T17:21:07.519Z,74.90
2019-05-25T17:23:38.922Z,75.70
2019-05-25T17:26:09.414Z,76.30
2019-05-25T17:28:39.779Z,76.70
2019-05-25T17:31:10.109Z,76.80
2019-05-25T17:33:45.915Z,76.90
2019-05-25T17:36:13.322Z,77.10
2019-05-25T17:38:43.754Z,78.20
2019-05-25T17:41:14.072Z,77.80
2019-05-25T17:43:44.771Z,78.20
2019-05-25T17:46:15.098Z,78.40
2019-05-25T17:48:48.275Z,79.00
2019-05-25T17:51:18.651Z,79.30
2019-05-25T17:53:49.216Z,79.50
2019-05-25T17:56:19.468Z,80.00
2019-05-25T17:58:50.005Z,80.40
2019-05-25T18:01:21.605Z,80.70
2019-05-25T18:04:05.635Z,80.90
2019-05-25T18:06:24.091Z,81.10
2019-05-25T18:08:54.487Z,81.00
2019-05-25T18:11:25.248Z,80.40
2019-05-25T18:13:55.695Z,80.00
2019-05-25T18:16:26.027Z,79.60
2019-05-25T18:18:56.579Z,79.40
2019-05-25T18:21:26.912Z,79.30
2019-05-25T18:23:57.200Z,79.80
2019-05-25T18:26:27.746Z,80.00
2019-05-25T18:28:58.732Z,80.30
2019-05-25T18:31:29.080Z,80.80
2019-05-25T18:33:59.535Z,81.30
2019-05-25T18:36:29.886Z,81.30
2019-05-25T18:39:00.168Z,81.80
2019-05-25T18:41:30.632Z,82.40
2019-05-25T18:44:04.064Z,82.50
2019-05-25T18:46:34.437Z,82.80
2019-05-25T18:49:04.841Z,83.40
2019-05-25T18:51:35.568Z,83.60
2019-05-25T18:54:06.079Z,84.20
2019-05-25T18:56:38.434Z,84.30
2019-05-25T18:59:10.204Z,84.50
2019-05-25T19:01:40.586Z,85.40
2019-05-25T19:04:10.966Z,85.50
2019-05-25T19:06:41.826Z,85.80
2019-05-25T19:09:12.193Z,86.30
2019-05-25T19:11:42.570Z,87.10
2019-05-25T19:14:13.035Z,87.80
2019-05-25T19:16:43.549Z,88.60
2019-05-25T19:19:13.924Z,89.20
2019-05-25T19:21:44.303Z,90.00
2019-05-25T19:24:14.770Z,90.40
2019-05-25T19:26:45.207Z,90.70
2019-05-25T19:29:15.625Z,91.00
2019-05-25T19:31:45.942Z,91.40
2019-05-25T19:34:16.357Z,91.80
2019-05-25T19:36:46.901Z,92.40
2019-05-25T19:39:17.195Z,93.30
2019-05-25T19:41:47.551Z,93.60
2019-05-25T19:44:17.911Z,93.90
2019-05-25T19:46:48.293Z,94.30
2019-05-25T19:49:18.675Z,94.50
2019-05-25T19:51:49.115Z,94.80
2019-05-25T19:54:19.545Z,95.00
2019-05-25T19:56:50.122Z,95.20
2019-05-25T19:59:20.613Z,96.20
2019-05-25T20:01:51.021Z,96.80
2019-05-25T20:04:21.391Z,97.40
2019-05-25T20:06:51.801Z,98.10
2019-05-25T20:09:22.109Z,98.00
2019-05-25T20:11:52.475Z,97.90
2019-05-25T20:14:22.795Z,98.00
2019-05-25T20:16:53.186Z,98.30
2019-05-25T20:19:23.484Z,98.70
2019-05-25T20:21:53.894Z,99.40
2019-05-25T20:24:24.573Z,99.90
2019-05-25T20:26:54.917Z,99.90
2019-05-25T20:29:25.338Z,99.90
2019-05-25T20:31:55.705Z,99.90
2019-05-25T20:34:26.046Z,99.90
2019-05-25T20:36:56.419Z,99.90
2019-05-25T20:39:26.804Z,99.90
2019-05-25T20:41:58.297Z,99.90
2019-05-25T20:44:28.673Z,99.90
2019-05-25T20:46:59.097Z,99.90
2019-05-25T20:49:29.668Z,99.90
2019-05-25T20:52:00.237Z,99.90
2019-05-25T20:54:30.704Z,99.90
2019-05-25T20:57:01.146Z,99.90
2019-05-25T20:59:32.692Z,99.90
2019-05-25T21:02:03.139Z,99.90
2019-05-25T21:04:33.594Z,99.90
2019-05-25T21:07:03.994Z,99.90
2019-05-25T21:09:34.421Z,99.90
2019-05-25T21:12:05.008Z,99.90
2019-05-25T21:14:35.394Z,99.90
2019-05-25T21:17:05.772Z,99.90
2019-05-25T21:19:37.187Z,99.90
2019-05-25T21:22:07.546Z,99.90
2019-05-25T21:24:37.888Z,99.90
2019-05-25T21:27:08.262Z,99.90
2019-05-25T21:29:38.622Z,99.90
2019-05-25T21:32:09.028Z,99.90
2019-05-25T21:34:39.515Z,99.90
2019-05-25T21:37:09.908Z,99.90
2019-05-25T21:39:40.220Z,99.90
2019-05-25T21:42:10.668Z,99.90
2019-05-25T21:44:41.028Z,99.90
2019-05-25T21:47:11.508Z,99.90
2019-05-25T21:49:41.746Z,99.90
2019-05-25T21:52:12.298Z,99.90
2019-05-25T21:54:42.660Z,99.90
2019-05-25T21:57:13.111Z,99.90
2019-05-25T21:59:43.528Z,99.90
2019-05-25T22:02:14.155Z,99.90
2019-05-25T22:04:44.644Z,99.90
2019-05-25T22:07:15.008Z,99.90
2019-05-25T22:09:45.456Z,99.90
2019-05-25T22:12:15.883Z,99.90
2019-05-25T22:14:46.292Z,99.90
2019-05-25T22:17:16.658Z,99.90
2019-05-25T22:19:47.092Z,99.90
2019-05-25T22:22:18.668Z,99.90
2019-05-25T22:24:49.068Z,99.90
2019-05-25T22:27:19.456Z,99.90
2019-05-25T22:29:49.853Z,99.90
2019-05-25T22:32:21.298Z,99.90
2019-05-25T22:34:51.714Z,99.90
2019-05-25T22:37:22.100Z,99.90
2019-05-25T22:39:52.502Z,99.90
2019-05-25T22:42:22.898Z,99.90
2019-05-25T22:44:53.371Z,99.90
2019-05-25T22:47:23.707Z,99.90
2019-05-25T22:49:54.091Z,99.90
2019-05-25T22:52:24.482Z,99.90
2019-05-25T22:54:55.119Z,99.90
2019-05-25T22:57:25.542Z,99.90
2019-05-25T22:59:55.910Z,99.90
2019-05-25T23:02:26.319Z,99.90
2019-05-25T23:04:56.712Z,99.90
2019-05-25T23:07:27.130Z,99.90
2019-05-25T23:09:57.466Z,99.90
2019-05-25T23:12:28.158Z,99.90
2019-05-25T23:14:58.507Z,99.90
2019-05-25T23:17:28.862Z,99.90
2019-05-25T23:19:59.213Z,99.90
2019-05-25T23:22:29.609Z,99.90
2019-05-25T23:24:59.966Z,99.90
2019-05-25T23:27:30.403Z,99.90
2019-05-25T23:30:00.764Z,99.90
2019-05-25T23:32:31.153Z,99.90
2019-05-25T23:35:01.588Z,99.90
2019-05-25T23:37:33.497Z,99.90
2019-05-25T23:40:05.284Z,99.90
2019-05-25T23:42:35.694Z,99.90
2019-05-25T23:45:07.289Z,99.90
2019-05-25T23:47:37.723Z,99.90
2019-05-25T23:50:09.315Z,99.90
2019-05-25T23:52:40.066Z,99.90
2019-05-25T23:55:10.802Z,99.90
2019-05-25T23:57:41.356Z,99.90
